Time;durP1;ratioP1;P1;durP2;ratioP2;P2;SDS_P1;SDS_P2;PMS_P1;PMS_P2;Temp;Humidity;BMP_temperature;BMP_pressure;BME280_temperature;BME280_humidity;BME280_pressure;Samples;Min_cycle;Max_cycle;Signal;HPM_P1;HPM_P2
2023/12/11 00:00:27;;;;;;;13.00;9.60;;;;;;;-0.20;100.00;100445.94;88472;274;137262;-72
2023/12/11 00:02:30;;;;;;;10.60;9.40;;;;;;;-0.19;100.00;100445.51;88460;282;24023;-69
2023/12/11 00:04:33;;;;;;;11.20;9.90;;;;;;;-0.16;100.00;100446.16;88351;274;138010;-69
2023/12/11 00:06:35;;;;;;;10.50;8.60;;;;;;;-0.12;100.00;100442.06;88357;275;22550;-69
2023/12/11 00:08:37;;;;;;;10.70;9.60;;;;;;;-0.11;100.00;100448.04;88258;279;137321;-68
2023/12/11 00:10:41;;;;;;;11.90;9.80;;;;;;;-0.10;100.00;100451.15;88482;275;25080;-71
2023/12/11 00:12:43;;;;;;;9.60;8.40;;;;;;;-0.11;100.00;100449.64;88202;276;137165;-68
2023/12/11 00:14:47;;;;;;;11.20;8.80;;;;;;;-0.11;100.00;100441.81;88428;282;24052;-69
2023/12/11 00:16:50;;;;;;;11.60;9.80;;;;;;;-0.19;100.00;100426.53;88279;278;137162;-69
2023/12/11 00:18:52;;;;;;;10.60;8.90;;;;;;;-0.14;100.00;100434.81;88491;282;22550;-70
2023/12/11 00:20:54;;;;;;;10.90;8.50;;;;;;;-0.13;100.00;100438.45;88327;282;137231;-68
2023/12/11 00:22:57;;;;;;;12.30;9.20;;;;;;;-0.14;100.00;100434.64;88491;282;22603;-70
2023/12/11 00:24:59;;;;;;;12.30;9.10;;;;;;;-0.16;100.00;100435.67;88332;277;136798;-72
2023/12/11 00:27:01;;;;;;;9.50;7.80;;;;;;;-0.15;100.00;100431.29;88532;281;24052;-69
2023/12/11 00:29:04;;;;;;;10.90;9.60;;;;;;;-0.18;100.00;100429.56;88414;281;137198;-70
2023/12/11 00:31:08;;;;;;;13.90;9.80;;;;;;;-0.21;100.00;100432.77;88473;282;24211;-68
2023/12/11 00:33:14;;;;;;;11.80;9.70;;;;;;;-0.22;100.00;100429.81;88471;280;137163;-69
2023/12/11 00:35:16;;;;;;;10.30;8.80;;;;;;;-0.22;100.00;100425.78;88519;282;22560;-69
2023/12/11 00:37:18;;;;;;;10.20;9.10;;;;;;;-0.19;100.00;100420.05;88494;274;138483;-71
2023/12/11 00:39:20;;;;;;;11.00;8.90;;;;;;;-0.18;100.00;100410.71;88595;281;22537;-70
2023/12/11 00:41:23;;;;;;;15.00;10.60;;;;;;;-0.20;100.00;100408.05;88650;280;137110;-67
2023/12/11 00:43:25;;;;;;;11.90;9.90;;;;;;;-0.24;100.00;100406.43;88655;278;25100;-69
2023/12/11 00:45:26;;;;;;;12.50;10.50;;;;;;;-0.25;100.00;100405.27;88951;277;138483;-69
2023/12/11 00:47:29;;;;;;;13.20;10.60;;;;;;;-0.29;100.00;100405.23;89861;282;22471;-68
2023/12/11 00:49:31;;;;;;;13.50;10.60;;;;;;;-0.27;100.00;100405.10;88780;282;137409;-72
2023/12/11 00:51:34;;;;;;;14.90;11.70;;;;;;;-0.26;100.00;100403.08;88630;282;24101;-70
2023/12/11 00:53:36;;;;;;;12.60;11.10;;;;;;;-0.27;100.00;100404.74;88565;278;137431;-66
2023/12/11 00:55:38;;;;;;;13.40;10.70;;;;;;;-0.25;100.00;100402.27;88583;275;24016;-64
2023/12/11 00:57:40;;;;;;;16.20;13.20;;;;;;;-0.25;100.00;100400.89;88435;282;138978;-70
2023/12/11 00:59:42;;;;;;;14.00;12.10;;;;;;;-0.24;100.00;100398.91;88565;282;22553;-68
2023/12/11 01:01:45;;;;;;;15.60;11.60;;;;;;;-0.23;100.00;100397.13;88480;282;137449;-67
2023/12/11 01:03:47;;;;;;;15.90;12.30;;;;;;;-0.25;100.00;100392.02;88578;282;22537;-69
2023/12/11 01:05:49;;;;;;;13.90;10.40;;;;;;;-0.26;100.00;100390.12;88509;278;137067;-71
2023/12/11 01:07:51;;;;;;;17.50;12.40;;;;;;;-0.26;100.00;100382.14;88513;278;24093;-71
2023/12/11 01:09:53;;;;;;;14.70;11.10;;;;;;;-0.27;100.00;100382.75;88456;274;137284;-68
2023/12/11 01:11:56;;;;;;;16.20;10.80;;;;;;;-0.30;100.00;100382.75;88531;274;22537;-69
2023/12/11 01:13:58;;;;;;;15.10;11.50;;;;;;;-0.42;100.00;100369.02;88517;280;137161;-71
2023/12/11 01:16:03;;;;;;;15.10;10.60;;;;;;;-0.34;100.00;100381.33;88455;275;23948;-68
2023/12/11 01:18:05;;;;;;;13.50;10.90;;;;;;;-0.33;100.00;100375.65;88601;273;23974;-69
2023/12/11 01:20:09;;;;;;;12.70;10.80;;;;;;;-0.31;100.00;100370.61;88484;280;137591;-71
2023/12/11 01:22:11;;;;;;;11.80;9.00;;;;;;;-0.28;100.00;100371.76;88568;282;24054;-67
2023/12/11 01:24:13;;;;;;;14.10;11.50;;;;;;;-0.24;100.00;100374.66;88282;279;137919;-70
2023/12/11 01:26:15;;;;;;;13.50;10.20;;;;;;;-0.22;100.00;100365.58;88439;274;26752;-69
2023/12/11 01:28:17;;;;;;;13.90;9.90;;;;;;;-0.20;100.00;100372.88;88425;282;137314;-67
2023/12/11 01:30:19;;;;;;;14.30;10.10;;;;;;;-0.23;100.00;100372.96;88531;273;24122;-70
2023/12/11 01:32:21;;;;;;;13.20;9.70;;;;;;;-0.23;100.00;100374.34;88434;282;137661;-70
2023/12/11 01:34:23;;;;;;;13.00;9.80;;;;;;;-0.21;100.00;100367.80;88521;282;25083;-70
2023/12/11 01:36:26;;;;;;;12.90;9.30;;;;;;;-0.22;100.00;100372.21;88382;273;138512;-68
2023/12/11 01:38:28;;;;;;;12.40;11.00;;;;;;;-0.23;100.00;100371.39;88616;277;24865;-68
2023/12/11 01:40:30;;;;;;;12.20;10.90;;;;;;;-0.23;100.00;100371.94;88517;273;137427;-70
2023/12/11 01:42:34;;;;;;;13.30;9.90;;;;;;;-0.22;100.00;100369.39;88550;274;22541;-68
2023/12/11 01:44:37;;;;;;;12.00;10.40;;;;;;;-0.21;100.00;100372.87;88575;278;137268;-67
2023/12/11 01:46:40;;;;;;;14.90;10.90;;;;;;;-0.19;100.00;100368.53;88443;282;22619;-69
2023/12/11 01:48:42;;;;;;;12.10;9.40;;;;;;;-0.17;100.00;100364.71;88515;274;139350;-69
2023/12/11 01:50:46;;;;;;;13.30;10.00;;;;;;;-0.17;100.00;100355.64;88448;275;25052;-69
2023/12/11 01:52:49;;;;;;;14.50;10.90;;;;;;;-0.22;100.00;100357.02;88438;277;137432;-67
2023/12/11 01:54:52;;;;;;;12.90;10.40;;;;;;;-0.33;100.00;100339.16;88589;273;25543;-68
2023/12/11 01:56:54;;;;;;;13.00;10.50;;;;;;;-0.23;100.00;100357.81;88530;273;137265;-71
2023/12/11 01:58:56;;;;;;;15.70;11.80;;;;;;;-0.23;100.00;100353.43;88574;277;25121;-66
2023/12/11 02:00:58;;;;;;;15.60;11.40;;;;;;;-0.24;100.00;100358.73;88545;273;137283;-68
2023/12/11 02:03:01;;;;;;;15.70;12.60;;;;;;;-0.27;100.00;100358.25;88658;274;22600;-71
2023/12/11 02:05:03;;;;;;;17.00;13.30;;;;;;;-0.32;100.00;100341.89;88500;281;138861;-67
2023/12/11 02:07:05;;;;;;;14.00;11.40;;;;;;;-0.25;100.00;100350.95;88454;279;24016;-73
2023/12/11 02:09:08;;;;;;;18.80;12.30;;;;;;;-0.25;100.00;100353.38;88416;282;137535;-70
2023/12/11 02:11:12;;;;;;;15.80;12.60;;;;;;;-0.28;100.00;100348.73;88565;274;22505;-68
2023/12/11 02:13:14;;;;;;;16.00;11.70;;;;;;;-0.30;100.00;100343.11;88538;281;137093;-69
2023/12/11 02:15:39;;;;;;;19.30;13.20;;;;;;;-0.30;100.00;100334.58;88629;274;23980;-68
2023/12/11 02:17:42;;;;;;;16.80;12.60;;;;;;;-0.26;100.00;100334.75;88458;282;137525;-68
2023/12/11 02:19:44;;;;;;;17.80;13.50;;;;;;;-0.22;100.00;100339.02;88594;282;22541;-68
2023/12/11 02:21:46;;;;;;;20.10;12.20;;;;;;;-0.18;100.00;100336.83;88497;282;136684;-69
2023/12/11 02:24:17;;;;;;;17.80;14.10;;;;;;;-0.15;100.00;100335.92;88580;280;25300;-69
2023/12/11 02:26:19;;;;;;;21.10;13.40;;;;;;;-0.18;100.00;100334.00;88467;275;25216;-69
2023/12/11 02:28:21;;;;;;;21.20;14.20;;;;;;;-0.20;100.00;100335.89;88280;279;137748;-70
2023/12/11 02:30:24;;;;;;;18.60;13.10;;;;;;;-0.21;100.00;100330.59;88457;278;22548;-67
2023/12/11 02:32:26;;;;;;;19.10;13.40;;;;;;;-0.21;100.00;100335.59;88395;281;560107;-69
2023/12/11 02:34:30;;;;;;;18.20;12.80;;;;;;;-0.24;100.00;100329.94;88629;281;22541;-68
2023/12/11 02:36:32;;;;;;;16.50;13.40;;;;;;;-0.27;100.00;100333.47;88494;281;137174;-69
2023/12/11 02:38:34;;;;;;;22.40;15.60;;;;;;;-0.25;100.00;100331.21;88560;281;26317;-68
2023/12/11 02:40:36;;;;;;;18.00;13.40;;;;;;;-0.24;100.00;100326.13;88465;282;137405;-68
2023/12/11 02:42:46;;;;;;;19.30;14.20;;;;;;;-0.24;100.00;100320.98;88593;278;22530;-68
2023/12/11 02:44:48;;;;;;;20.60;14.80;;;;;;;-0.23;100.00;100316.56;88556;281;137418;-69
2023/12/11 02:46:51;;;;;;;21.90;14.30;;;;;;;-0.22;100.00;100320.88;88363;275;22474;-71
2023/12/11 02:48:52;;;;;;;24.40;14.70;;;;;;;-0.22;100.00;100319.64;88372;283;138013;-71
2023/12/11 02:50:55;;;;;;;20.40;15.00;;;;;;;-0.19;100.00;100326.42;88603;282;22534;-73
2023/12/11 02:53:04;;;;;;;19.20;14.50;;;;;;;-0.16;100.00;100327.89;88480;282;137367;-73
2023/12/11 02:55:06;;;;;;;27.10;17.50;;;;;;;-0.16;100.00;100326.90;88648;282;25083;-72
2023/12/11 02:57:08;;;;;;;24.50;17.90;;;;;;;-0.16;100.00;100323.55;88478;282;137529;-79
2023/12/11 02:59:11;;;;;;;25.20;15.90;;;;;;;-0.15;100.00;100319.27;88489;278;25731;-74
2023/12/11 03:01:15;;;;;;;25.80;17.10;;;;;;;-0.15;100.00;100318.08;88404;278;137277;-77
2023/12/11 03:03:17;;;;;;;25.10;15.30;;;;;;;-0.14;100.00;100317.98;88658;274;22554;-76
2023/12/11 03:05:20;;;;;;;22.10;16.10;;;;;;;-0.13;100.00;100320.89;88543;281;137267;-78
2023/12/11 03:07:23;;;;;;;23.30;16.50;;;;;;;-0.09;100.00;100324.95;88727;281;24033;-76
2023/12/11 03:09:25;;;;;;;24.00;17.10;;;;;;;-0.08;100.00;100324.84;88773;278;137806;-78
2023/12/11 03:11:27;;;;;;;24.50;16.70;;;;;;;-0.07;100.00;100322.35;88655;282;22533;-77
2023/12/11 03:13:29;;;;;;;26.00;16.40;;;;;;;-0.06;100.00;100323.64;88748;274;137195;-75
2023/12/11 03:15:31;;;;;;;22.30;15.20;;;;;;;-0.05;100.00;100320.06;89407;281;22521;-67
2023/12/11 03:17:34;;;;;;;21.30;14.50;;;;;;;-0.03;100.00;100322.73;89574;280;137356;-71
2023/12/11 03:19:37;;;;;;;21.10;13.50;;;;;;;-0.05;100.00;100321.25;89675;280;22537;-77
2023/12/11 03:21:39;;;;;;;18.20;12.10;;;;;;;0.00;100.00;100323.70;89964;277;137516;-78
2023/12/11 03:23:41;;;;;;;21.20;14.70;;;;;;;0.03;100.00;100330.79;89693;278;22562;-76
2023/12/11 03:25:43;;;;;;;13.80;10.30;;;;;;;-0.01;100.00;100317.35;89265;282;136997;-77
2023/12/11 03:27:45;;;;;;;14.40;11.00;;;;;;;0.05;100.00;100330.27;89249;282;22542;-80
2023/12/11 03:29:48;;;;;;;13.40;10.60;;;;;;;0.05;100.00;100328.77;89015;273;136986;-77
2023/12/11 03:31:50;;;;;;;11.70;9.50;;;;;;;0.04;100.00;100331.58;89191;273;22527;-79
2023/12/11 03:33:53;;;;;;;10.50;9.00;;;;;;;0.05;100.00;100329.73;88705;280;137095;-79
2023/12/11 03:35:55;;;;;;;14.60;10.50;;;;;;;0.09;100.00;100333.69;88588;282;23008;-81
2023/12/11 03:37:57;;;;;;;11.90;8.80;;;;;;;0.12;100.00;100334.10;88527;273;137214;-81
2023/12/11 03:39:59;;;;;;;10.40;6.80;;;;;;;0.14;100.00;100334.81;88631;281;25128;-79
2023/12/11 03:42:01;;;;;;;9.10;6.90;;;;;;;0.13;100.00;100331.45;88539;275;137021;-81
2023/12/11 03:44:04;;;;;;;6.60;5.50;;;;;;;0.11;100.00;100330.33;88530;278;137148;-77
2023/12/11 03:46:06;;;;;;;6.70;5.20;;;;;;;0.10;100.00;100325.38;88686;274;22523;-78
2023/12/11 03:48:08;;;;;;;6.00;5.10;;;;;;;0.11;100.00;100324.70;88572;274;138051;-77
2023/12/11 03:50:11;;;;;;;5.30;4.80;;;;;;;0.14;100.00;100320.83;88397;275;22602;-75
2023/12/11 03:52:13;;;;;;;4.80;4.30;;;;;;;0.17;100.00;100322.52;88518;282;136920;-77
2023/12/11 03:54:16;;;;;;;7.00;5.10;;;;;;;0.11;100.00;100306.27;88775;274;24121;-77
2023/12/11 03:56:18;;;;;;;7.70;6.10;;;;;;;0.19;100.00;100319.06;88819;278;138182;-72
2023/12/11 03:58:20;;;;;;;7.70;6.00;;;;;;;0.21;100.00;100319.48;88930;281;25912;-76
2023/12/11 04:00:22;;;;;;;5.10;4.10;;;;;;;0.19;100.00;100316.57;89326;278;136582;-74
2023/12/11 04:02:27;;;;;;;5.80;5.10;;;;;;;0.16;100.00;100319.65;88930;281;25118;-73
2023/12/11 04:04:30;;;;;;;5.40;4.70;;;;;;;0.17;100.00;100322.73;88799;275;138307;-77
2023/12/11 04:06:32;;;;;;;5.00;4.50;;;;;;;0.15;100.00;100313.77;88950;278;22546;-76
2023/12/11 04:08:42;;;;;;;6.20;5.40;;;;;;;0.14;100.00;100311.05;88608;280;136705;-79
2023/12/11 04:10:45;;;;;;;5.50;4.90;;;;;;;0.11;100.00;100313.08;88789;275;24056;-79
2023/12/11 04:12:47;;;;;;;6.00;4.70;;;;;;;0.08;100.00;100316.05;88589;280;136619;-78
2023/12/11 04:14:49;;;;;;;6.20;5.50;;;;;;;0.05;100.00;100310.70;88737;276;25138;-78
2023/12/11 04:16:51;;;;;;;4.80;4.30;;;;;;;0.03;100.00;100305.96;88587;273;137041;-79
2023/12/11 04:18:54;;;;;;;5.30;4.80;;;;;;;0.02;100.00;100301.23;88611;274;22534;-75
2023/12/11 04:21:01;;;;;;;15.60;5.00;;;;;;;0.03;100.00;100297.06;88780;273;136637;-73
2023/12/11 04:23:03;;;;;;;4.50;4.10;;;;;;;-0.03;100.00;100282.21;88741;281;22542;-72
2023/12/11 04:25:07;;;;;;;6.50;5.10;;;;;;;0.08;100.00;100295.67;88476;281;137072;-76
2023/12/11 04:27:09;;;;;;;4.30;3.90;;;;;;;0.09;100.00;100292.37;88509;274;22534;-80
2023/12/11 04:29:14;;;;;;;5.00;4.10;;;;;;;0.10;100.00;100299.48;88596;274;136839;-75
2023/12/11 04:31:16;;;;;;;4.60;4.20;;;;;;;0.09;100.00;100301.86;88564;281;22760;-76
2023/12/11 04:33:18;;;;;;;4.70;4.20;;;;;;;0.09;100.00;100304.65;88601;282;136478;-76
2023/12/11 04:35:20;;;;;;;5.10;4.60;;;;;;;0.12;100.00;100302.16;88719;273;25080;-78
2023/12/11 04:37:22;;;;;;;5.00;4.60;;;;;;;0.14;100.00;100299.56;88504;273;136835;-76
2023/12/11 04:39:24;;;;;;;5.40;4.90;;;;;;;0.16;100.00;100302.30;88636;281;25085;-77
2023/12/11 04:41:26;;;;;;;5.30;4.80;;;;;;;0.16;100.00;100303.20;88511;275;136893;-76
2023/12/11 04:43:28;;;;;;;4.80;4.30;;;;;;;0.16;100.00;100302.38;88536;282;22537;-74
2023/12/11 04:45:32;;;;;;;6.60;5.20;;;;;;;0.14;100.00;100304.05;88481;280;136437;-73
2023/12/11 04:47:35;;;;;;;5.80;5.30;;;;;;;0.15;100.00;100307.70;88700;278;22537;-74
2023/12/11 04:49:41;;;;;;;5.70;5.20;;;;;;;0.17;100.00;100311.19;88628;273;137157;-75
2023/12/11 04:51:43;;;;;;;5.70;5.20;;;;;;;0.18;100.00;100308.61;88752;273;22585;-75
2023/12/11 04:53:46;;;;;;;5.70;5.20;;;;;;;0.08;100.00;100289.35;88483;275;136837;-73
2023/12/11 04:55:48;;;;;;;7.60;6.20;;;;;;;0.19;100.00;100301.41;88646;275;22545;-73
2023/12/11 04:57:50;;;;;;;6.90;5.80;;;;;;;0.19;100.00;100305.25;88382;281;136944;-72
2023/12/11 04:59:52;;;;;;;7.10;5.90;;;;;;;0.21;100.00;100301.09;88604;281;22533;-73
2023/12/11 05:01:54;;;;;;;8.80;5.90;;;;;;;0.20;100.00;100294.36;88603;274;136509;-71
2023/12/11 05:03:57;;;;;;;6.20;5.60;;;;;;;0.17;100.00;100289.48;88339;281;22622;-73
2023/12/11 05:05:59;;;;;;;5.70;5.10;;;;;;;0.21;100.00;100292.73;88377;273;136911;-70
2023/12/11 05:08:02;;;;;;;6.00;5.50;;;;;;;0.23;100.00;100292.76;88456;273;22896;-72
2023/12/11 05:10:05;;;;;;;6.40;5.70;;;;;;;0.24;100.00;100286.72;88541;279;25172;-73
2023/12/11 05:12:07;;;;;;;7.30;6.20;;;;;;;0.25;100.00;100287.33;88586;273;136928;-73
2023/12/11 05:14:10;;;;;;;9.40;5.40;;;;;;;0.27;100.00;100290.64;88384;280;22527;-72
2023/12/11 05:16:12;;;;;;;6.70;5.90;;;;;;;0.29;100.00;100281.25;88297;273;136833;-73
2023/12/11 05:18:15;;;;;;;6.80;6.00;;;;;;;0.30;100.00;100282.67;88559;273;22799;-77
2023/12/11 05:20:18;;;;;;;7.30;6.10;;;;;;;0.30;100.00;100282.67;88420;274;138353;-74
2023/12/11 05:22:21;;;;;;;8.90;6.80;;;;;;;0.34;100.00;100287.29;88399;274;22537;-72
2023/12/11 05:24:23;;;;;;;8.00;7.10;;;;;;;0.38;100.00;100280.83;88360;277;138298;-74
2023/12/11 05:26:25;;;;;;;5.20;4.70;;;;;;;0.40;100.00;100273.13;88364;273;22532;-72
2023/12/11 05:28:27;;;;;;;7.60;6.80;;;;;;;0.38;100.00;100266.52;88489;280;136833;-76
2023/12/11 05:30:29;;;;;;;8.50;7.30;;;;;;;0.37;100.00;100258.40;88357;273;22536;-73
2023/12/11 05:32:31;;;;;;;6.90;6.00;;;;;;;0.36;100.00;100256.48;88331;275;137787;-73
2023/12/11 05:34:33;;;;;;;6.30;5.50;;;;;;;0.36;100.00;100250.94;88329;278;22849;-71
2023/12/11 05:36:35;;;;;;;10.60;6.90;;;;;;;0.35;100.00;100251.39;88247;274;137718;-70
2023/12/11 05:38:37;;;;;;;9.40;6.20;;;;;;;0.35;100.00;100258.05;88258;275;25178;-75
2023/12/11 05:40:42;;;;;;;6.20;5.50;;;;;;;0.34;100.00;100255.98;88278;274;136822;-71
2023/12/11 05:42:44;;;;;;;7.20;4.80;;;;;;;0.30;100.00;100253.70;88405;277;25115;-73
2023/12/11 05:44:46;;;;;;;8.60;6.10;;;;;;;0.28;100.00;100250.70;88303;277;136977;-72
2023/12/11 05:46:48;;;;;;;8.10;5.90;;;;;;;0.27;100.00;100246.75;88286;282;22540;-66
2023/12/11 05:48:50;;;;;;;6.70;6.10;;;;;;;0.27;100.00;100248.16;88261;277;136757;-66
2023/12/11 05:50:52;;;;;;;8.30;5.50;;;;;;;0.25;100.00;100243.95;88460;273;22537;-69
2023/12/11 05:52:54;;;;;;;6.10;5.10;;;;;;;0.27;100.00;100244.54;88208;280;137896;-69
2023/12/11 05:54:56;;;;;;;6.30;5.10;;;;;;;0.31;100.00;100239.96;88363;278;25171;-70
2023/12/11 05:56:58;;;;;;;8.20;5.20;;;;;;;0.33;100.00;100238.23;88279;278;136694;-67
2023/12/11 05:59:00;;;;;;;6.70;5.90;;;;;;;0.33;100.00;100241.53;88335;278;22531;-70
2023/12/11 06:01:04;;;;;;;7.30;6.00;;;;;;;0.35;100.00;100247.70;88286;274;137914;-68
2023/12/11 06:03:06;;;;;;;9.20;5.60;;;;;;;0.38;100.00;100247.66;88389;279;22584;-69
2023/12/11 06:05:08;;;;;;;7.00;5.60;;;;;;;0.38;100.00;100246.55;89983;274;136792;-66
2023/12/11 06:07:11;;;;;;;6.60;5.40;;;;;;;0.38;100.00;100243.73;88918;278;24054;-69
2023/12/11 06:09:13;;;;;;;5.70;5.00;;;;;;;0.39;100.00;100245.11;88408;273;137067;-67
2023/12/11 06:11:15;;;;;;;6.40;5.40;;;;;;;0.38;100.00;100248.28;88503;273;22547;-67
2023/12/11 06:13:18;;;;;;;6.00;4.50;;;;;;;0.38;100.00;100246.27;88286;280;136737;-69
2023/12/11 06:15:20;;;;;;;5.10;4.40;;;;;;;0.37;100.00;100247.85;88354;275;22660;-67
2023/12/11 06:17:22;;;;;;;4.80;4.10;;;;;;;0.37;100.00;100257.64;88407;275;136659;-67
2023/12/11 06:19:25;;;;;;;9.00;5.60;;;;;;;0.38;100.00;100259.70;88466;274;22537;-69
2023/12/11 06:21:27;;;;;;;6.30;4.80;;;;;;;0.42;100.00;100262.52;88247;276;136601;-67
2023/12/11 06:23:30;;;;;;;8.00;4.10;;;;;;;0.46;100.00;100256.81;88344;279;22537;-68
2023/12/11 06:25:32;;;;;;;6.40;5.60;;;;;;;0.45;100.00;100258.24;88264;275;137073;-71
2023/12/11 06:27:34;;;;;;;10.70;7.40;;;;;;;0.46;100.00;100261.02;88376;279;24054;-69
2023/12/11 06:29:38;;;;;;;13.90;7.00;;;;;;;0.45;100.00;100263.82;88288;275;137216;-65
2023/12/11 06:34:39;;;;;;;8.70;7.80;;;;;;;0.36;100.00;100270.51;86632;305;616805;-66
2023/12/11 06:36:42;;;;;;;9.30;7.40;;;;;;;0.32;100.00;100261.36;87703;292;136520;-66
2023/12/11 06:38:44;;;;;;;11.50;8.40;;;;;;;0.34;100.00;100261.57;87909;293;22619;-71
2023/12/11 06:40:47;;;;;;;10.10;7.90;;;;;;;0.33;100.00;100264.29;87922;293;136415;-70
2023/12/11 06:42:50;;;;;;;8.50;6.30;;;;;;;0.28;100.00;100266.23;87990;291;22543;-66
2023/12/11 06:44:53;;;;;;;11.60;8.20;;;;;;;0.25;100.00;100259.69;87710;287;136877;-69
2023/12/11 06:46:55;;;;;;;13.20;9.50;;;;;;;0.21;100.00;100251.63;87717;294;25341;-70
2023/12/11 06:48:58;;;;;;;12.30;7.40;;;;;;;0.20;100.00;100249.80;87271;291;766986;-69
2023/12/11 06:51:01;;;;;;;11.20;9.50;;;;;;;0.17;100.00;100245.83;88046;283;22557;-72
2023/12/11 06:53:03;;;;;;;10.10;7.10;;;;;;;0.16;100.00;100249.76;87771;287;136210;-68
2023/12/11 06:55:06;;;;;;;6.10;5.50;;;;;;;0.16;100.00;100245.04;88316;277;25296;-69
2023/12/11 06:57:08;;;;;;;8.80;7.80;;;;;;;0.18;100.00;100242.77;88278;275;136509;-69
2023/12/11 06:59:10;;;;;;;9.80;6.10;;;;;;;0.21;100.00;100243.96;88129;283;25100;-69
2023/12/11 07:01:13;;;;;;;10.20;6.30;;;;;;;0.22;100.00;100240.56;88194;276;136372;-70
2023/12/11 07:03:16;;;;;;;7.40;5.90;;;;;;;0.20;100.00;100244.88;88353;276;22600;-68
2023/12/11 07:05:18;;;;;;;11.10;8.20;;;;;;;0.23;100.00;100247.63;88346;283;138209;-69
2023/12/11 07:07:20;;;;;;;9.10;6.10;;;;;;;0.24;100.00;100254.34;88329;276;24058;-67
2023/12/11 07:09:23;;;;;;;11.90;8.80;;;;;;;0.24;100.00;100260.63;88205;276;136355;-67
2023/12/11 07:11:25;;;;;;;10.30;8.50;;;;;;;0.25;100.00;100264.22;88216;277;22545;-70
2023/12/11 07:13:27;;;;;;;10.20;7.90;;;;;;;0.26;100.00;100264.48;88103;282;136778;-68
2023/12/11 07:15:29;;;;;;;14.50;8.50;;;;;;;0.30;100.00;100269.79;88257;279;22544;-68
2023/12/11 07:17:33;;;;;;;11.90;9.40;;;;;;;0.33;100.00;100273.06;88430;280;136610;-70
2023/12/11 07:19:38;;;;;;;9.70;8.70;;;;;;;0.35;100.00;100272.13;88404;283;25123;-67
2023/12/11 07:21:44;;;;;;;10.00;8.00;;;;;;;0.38;100.00;100271.39;88062;276;137121;-70
2023/12/11 07:23:48;;;;;;;;;;;;;;;0.43;100.00;100265.38;88331;276;22521;-72
2023/12/11 07:25:50;;;;;;;13.40;9.00;;;;;;;0.46;100.00;100262.89;89049;281;122999;-68
2023/12/11 07:27:52;;;;;;;12.70;8.40;;;;;;;0.50;100.00;100264.16;88261;283;22888;-69
2023/12/11 07:29:56;;;;;;;12.50;9.60;;;;;;;0.51;100.00;100263.53;88164;276;136425;-69
2023/12/11 07:31:58;;;;;;;11.50;8.60;;;;;;;0.53;100.00;100258.48;88760;279;22557;-71
2023/12/11 07:34:01;;;;;;;12.70;10.10;;;;;;;0.54;100.00;100260.09;88453;277;136735;-68
2023/12/11 07:36:04;;;;;;;10.10;6.60;;;;;;;0.55;100.00;100256.40;88289;275;23507;-70
2023/12/11 07:38:06;;;;;;;10.70;7.90;;;;;;;0.54;100.00;100253.16;88300;276;24038;-70
2023/12/11 07:40:10;;;;;;;11.50;8.80;;;;;;;0.54;100.00;100258.21;88236;276;136816;-70
2023/12/11 07:42:13;;;;;;;10.40;8.40;;;;;;;0.54;100.00;100259.08;88452;275;23984;-68
2023/12/11 07:44:15;;;;;;;9.50;7.90;;;;;;;0.53;100.00;100257.46;88177;276;136741;-69
2023/12/11 07:46:20;;;;;;;14.00;9.70;;;;;;;0.51;100.00;100254.99;89133;275;22541;-70
2023/12/11 07:48:22;;;;;;;10.90;8.80;;;;;;;0.51;100.00;100251.59;88247;284;136847;-69
2023/12/11 07:50:25;;;;;;;11.70;8.60;;;;;;;0.54;100.00;100254.48;88356;279;22854;-69
2023/12/11 07:52:30;;;;;;;13.10;9.90;;;;;;;0.56;100.00;100255.95;88150;279;136442;-69
2023/12/11 07:54:32;;;;;;;16.60;11.00;;;;;;;0.54;100.00;100253.44;88221;283;22553;-68
2023/12/11 07:56:36;;;;;;;8.40;7.10;;;;;;;0.54;100.00;100254.86;88103;275;138021;-70
2023/12/11 07:58:39;;;;;;;9.20;7.10;;;;;;;0.45;100.00;100246.55;88250;275;22695;-69
2023/12/11 08:00:40;;;;;;;8.40;7.10;;;;;;;0.50;100.00;100256.98;88094;275;136189;-68
2023/12/11 08:02:43;;;;;;;9.90;7.50;;;;;;;0.47;100.00;100256.52;88166;274;24057;-70
2023/12/11 08:04:45;;;;;;;7.80;7.00;;;;;;;0.43;100.00;100251.10;88199;275;136375;-67
2023/12/11 08:06:47;;;;;;;14.40;8.40;;;;;;;0.40;100.00;100245.89;89034;279;24234;-70
2023/12/11 08:08:50;;;;;;;13.60;11.00;;;;;;;0.38;100.00;100238.35;88384;284;136384;-70
2023/12/11 08:10:52;;;;;;;16.50;12.30;;;;;;;0.40;100.00;100242.88;88659;279;22536;-72
2023/12/11 08:12:55;;;;;;;16.60;13.20;;;;;;;0.46;100.00;100244.67;88349;282;138655;-70
2023/12/11 08:14:57;;;;;;;13.30;10.10;;;;;;;0.50;100.00;100243.17;88263;282;22542;-71
2023/12/11 08:17:00;;;;;;;13.90;10.60;;;;;;;0.52;100.00;100233.70;88141;281;136944;-73
2023/12/11 08:19:03;;;;;;;11.70;9.60;;;;;;;0.52;100.00;100230.95;88158;280;25355;-72
2023/12/11 08:21:06;;;;;;;13.60;9.50;;;;;;;0.52;100.00;100232.83;88471;283;136945;-68
2023/12/11 08:23:08;;;;;;;12.10;9.50;;;;;;;0.50;100.00;100231.81;88341;275;22646;-66
2023/12/11 08:25:12;;;;;;;9.30;7.00;;;;;;;0.48;100.00;100230.22;88279;275;136672;-69
2023/12/11 08:27:15;;;;;;;8.80;7.90;;;;;;;0.47;100.00;100225.43;88551;275;25084;-69
2023/12/11 08:29:21;;;;;;;8.20;7.40;;;;;;;0.46;100.00;100226.70;88127;277;136056;-69
2023/12/11 08:31:23;;;;;;;12.70;9.50;;;;;;;0.47;100.00;100217.56;88252;275;22537;-70
2023/12/11 08:33:25;;;;;;;12.10;10.30;;;;;;;0.48;100.00;100216.60;88185;279;136710;-70
2023/12/11 08:35:28;;;;;;;10.30;8.30;;;;;;;0.52;100.00;100208.35;88299;275;24046;-69
2023/12/11 08:37:30;;;;;;;12.50;10.10;;;;;;;0.56;100.00;100209.59;88123;275;136812;-71
2023/12/11 08:39:33;;;;;;;12.50;10.60;;;;;;;0.60;100.00;100209.63;88474;275;22536;-70
2023/12/11 08:41:36;;;;;;;13.30;11.20;;;;;;;0.62;100.00;100204.57;88003;283;137588;-68
2023/12/11 08:43:38;;;;;;;13.00;11.70;;;;;;;0.63;100.00;100203.98;88287;275;22544;-69
2023/12/11 08:45:41;;;;;;;13.40;10.50;;;;;;;0.63;100.00;100204.66;88110;282;136617;-72
2023/12/11 08:47:43;;;;;;;12.70;10.20;;;;;;;0.63;100.00;100208.72;88700;279;23871;-70
2023/12/11 08:49:45;;;;;;;13.00;11.10;;;;;;;0.57;100.00;100202.48;88150;275;138222;-70
2023/12/11 08:51:48;;;;;;;14.40;11.60;;;;;;;0.56;100.00;100201.53;88359;282;23992;-69
2023/12/11 08:53:49;;;;;;;14.60;12.20;;;;;;;0.57;100.00;100200.59;88329;275;136899;-70
2023/12/11 08:55:53;;;;;;;10.60;8.60;;;;;;;0.57;100.00;100197.13;88323;275;22534;-71
2023/12/11 08:57:56;;;;;;;14.40;10.50;;;;;;;0.55;100.00;100196.38;88444;276;136325;-70
2023/12/11 08:59:58;;;;;;;12.90;10.70;;;;;;;0.56;100.00;100194.36;88214;280;22553;-69
2023/12/11 09:02:00;;;;;;;12.70;10.80;;;;;;;0.61;100.00;100191.02;88111;275;136940;-69
2023/12/11 09:04:03;;;;;;;16.70;13.40;;;;;;;0.67;100.00;100195.05;88163;280;137957;-67
2023/12/11 09:06:05;;;;;;;16.80;11.60;;;;;;;0.73;100.00;100194.92;88382;275;24141;-68
2023/12/11 09:08:09;;;;;;;15.10;12.20;;;;;;;0.75;100.00;100188.77;88043;280;138291;-67
2023/12/11 09:10:11;;;;;;;16.30;12.70;;;;;;;0.77;100.00;100183.70;88208;275;21584;-71
2023/12/11 09:12:13;;;;;;;19.60;13.00;;;;;;;0.76;100.00;100183.31;88035;275;137219;-70
2023/12/11 09:14:35;;;;;;;13.30;10.50;;;;;;;0.71;100.00;100179.34;88457;276;22539;-67
2023/12/11 09:16:37;;;;;;;11.70;9.00;;;;;;;0.67;100.00;100178.66;88188;275;136830;-67
2023/12/11 09:18:39;;;;;;;19.20;12.00;;;;;;;0.62;100.00;100177.09;88298;275;24057;-68
2023/12/11 09:20:41;;;;;;;14.30;11.10;;;;;;;0.61;100.00;100176.02;88249;278;137121;-68
2023/12/11 09:22:43;;;;;;;15.50;12.80;;;;;;;0.57;100.00;100174.36;88278;278;23033;-69
2023/12/11 09:24:45;;;;;;;18.10;13.60;;;;;;;0.58;100.00;100178.48;87848;280;136997;-68
2023/12/11 09:26:47;;;;;;;22.50;16.70;;;;;;;0.63;100.00;100172.67;88103;275;25048;-69
2023/12/11 09:28:49;;;;;;;20.10;14.20;;;;;;;0.67;100.00;100172.36;88158;278;136883;-69